createdAt,value
2018-09-28T00:00:30.016Z,3.70
2018-09-28T00:01:29.991Z,3.80
2018-09-28T00:02:50.984Z,3.80
2018-09-28T00:03:50.998Z,3.70
2018-09-28T00:04:29.916Z,4.40
2018-09-28T00:05:29.976Z,7.20
2018-09-28T00:06:29.969Z,5.60
2018-09-28T00:07:50.927Z,3.50
2018-09-28T00:08:50.949Z,4.00
2018-09-28T00:09:29.945Z,3.70
2018-09-28T00:10:29.929Z,4.10
2018-09-28T00:11:29.946Z,4.20
2018-09-28T00:12:50.948Z,4.30
2018-09-28T00:13:50.952Z,4.30
2018-09-28T00:14:29.928Z,4.70
2018-09-28T00:15:29.927Z,3.40
2018-09-28T00:16:30.881Z,5.50
2018-09-28T00:17:50.920Z,3.30
2018-09-28T00:18:50.878Z,4.50
2018-09-28T00:19:29.903Z,2.50
2018-09-28T00:20:29.902Z,2.20
2018-09-28T00:21:29.895Z,3.40
2018-09-28T00:22:50.912Z,3.30
2018-09-28T00:23:50.896Z,2.20
2018-09-28T00:24:29.888Z,3.90
2018-09-28T00:25:29.879Z,8.30
2018-09-28T00:26:29.870Z,3.80
2018-09-28T00:27:50.876Z,5.30
2018-09-28T00:28:50.865Z,2.90
2018-09-28T00:29:29.840Z,2.70
2018-09-28T00:30:29.869Z,2.60
2018-09-28T00:31:29.853Z,4.30
2018-09-28T00:32:50.855Z,3.00
2018-09-28T00:33:50.843Z,3.10
2018-09-28T00:34:29.834Z,5.40
2018-09-28T00:35:29.841Z,2.30
2018-09-28T00:36:29.825Z,4.60
2018-09-28T00:37:50.861Z,5.20
2018-09-28T00:38:50.838Z,3.90
2018-09-28T00:39:29.809Z,8.90
2018-09-28T00:40:29.808Z,3.10
2018-09-28T00:41:29.803Z,2.70
2018-09-28T00:42:50.823Z,2.60
2018-09-28T00:43:50.807Z,2.60
2018-09-28T00:44:29.786Z,2.70
2018-09-28T00:45:29.788Z,2.50
2018-09-28T00:46:29.798Z,4.20
2018-09-28T00:47:50.791Z,2.40
2018-09-28T00:48:50.776Z,3.30
2018-09-28T00:49:29.748Z,3.10
2018-09-28T00:50:29.769Z,2.10
2018-09-28T00:51:29.761Z,4.00
2018-09-28T00:52:50.759Z,4.50
2018-09-28T00:53:50.770Z,3.10
2018-09-28T00:54:29.751Z,3.70
2018-09-28T00:55:29.738Z,2.90
2018-09-28T00:56:29.757Z,2.80
2018-09-28T00:57:51.448Z,4.30
2018-09-28T00:58:50.737Z,3.50
2018-09-28T00:59:29.733Z,2.50
2018-09-28T01:00:29.717Z,5.50
2018-09-28T01:01:29.723Z,5.60
2018-09-28T01:02:50.729Z,4.60
2018-09-28T01:03:50.721Z,3.40
2018-09-28T01:04:29.708Z,3.40
2018-09-28T01:05:29.696Z,5.80
2018-09-28T01:06:29.694Z,3.20
2018-09-28T01:07:50.699Z,4.20
2018-09-28T01:08:50.694Z,3.90
2018-09-28T01:09:29.683Z,8.20
2018-09-28T01:10:29.684Z,2.10
2018-09-28T01:11:29.671Z,3.20
2018-09-28T01:12:50.672Z,3.00
2018-09-28T01:13:50.635Z,3.80
2018-09-28T01:14:29.660Z,7.00
2018-09-28T01:15:29.653Z,3.50
2018-09-28T01:16:29.630Z,3.40
2018-09-28T01:17:50.668Z,6.10
2018-09-28T01:18:50.660Z,2.60
2018-09-28T01:19:29.634Z,8.30
2018-09-28T01:20:29.637Z,4.00
2018-09-28T01:21:29.618Z,6.10
2018-09-28T01:22:50.657Z,2.60
2018-09-28T01:23:50.626Z,2.90
2018-09-28T01:24:29.627Z,3.00
2018-09-28T01:25:29.607Z,2.80
2018-09-28T01:26:29.605Z,2.90
2018-09-28T01:27:50.605Z,4.10
2018-09-28T01:28:51.564Z,3.50
2018-09-28T01:29:29.593Z,3.70
2018-09-28T01:30:29.553Z,3.40
2018-09-28T01:31:29.573Z,2.60
2018-09-28T01:32:50.576Z,2.60
2018-09-28T01:33:50.576Z,4.10
2018-09-28T01:34:29.559Z,3.40
2018-09-28T01:35:29.558Z,2.80
2018-09-28T01:36:29.561Z,3.50
2018-09-28T01:37:50.554Z,5.50
2018-09-28T01:38:50.547Z,3.60
2018-09-28T01:39:29.518Z,2.50
2018-09-28T01:40:29.526Z,8.70
2018-09-28T01:41:29.532Z,3.70
2018-09-28T01:42:50.541Z,5.10
2018-09-28T01:43:50.519Z,2.90
2018-09-28T01:44:29.536Z,3.30
2018-09-28T01:45:29.509Z,5.60
2018-09-28T01:46:29.482Z,6.10
2018-09-28T01:47:50.511Z,3.70
2018-09-28T01:48:50.453Z,4.70
2018-09-28T01:49:29.489Z,4.80
2018-09-28T01:50:29.483Z,3.30
2018-09-28T01:51:29.451Z,4.40
2018-09-28T01:52:50.486Z,3.50
2018-09-28T01:53:50.477Z,6.40
2018-09-28T01:54:29.467Z,4.60
2018-09-28T01:55:29.458Z,5.90
2018-09-28T01:56:29.444Z,2.80
2018-09-28T01:57:50.463Z,8.10
2018-09-28T01:58:50.451Z,4.70
2018-09-28T01:59:29.442Z,4.20
2018-09-28T02:00:29.446Z,3.20
2018-09-28T02:01:29.433Z,3.00
2018-09-28T02:02:50.430Z,4.10
2018-09-28T02:03:50.421Z,2.20
2018-09-28T02:04:29.397Z,2.70
2018-09-28T02:05:29.414Z,3.80
2018-09-28T02:06:29.408Z,2.30
2018-09-28T02:07:50.375Z,2.30
2018-09-28T02:08:50.408Z,3.70
2018-09-28T02:09:29.396Z,2.80
2018-09-28T02:10:29.391Z,2.30
2018-09-28T02:11:29.388Z,2.50
2018-09-28T02:12:50.389Z,2.80
2018-09-28T02:13:50.368Z,2.60
2018-09-28T02:14:29.340Z,3.00
2018-09-28T02:15:29.357Z,3.30
2018-09-28T02:16:29.366Z,3.20
2018-09-28T02:17:50.359Z,2.40
2018-09-28T02:18:50.366Z,3.90
2018-09-28T02:19:30.338Z,2.30
2018-09-28T02:20:29.344Z,3.10
2018-09-28T02:21:29.330Z,3.90
2018-09-28T02:22:50.330Z,6.30
2018-09-28T02:23:50.325Z,6.70
2018-09-28T02:24:29.320Z,2.10
2018-09-28T02:25:29.306Z,3.60
2018-09-28T02:26:29.309Z,4.40
2018-09-28T02:27:50.303Z,5.70
2018-09-28T02:28:50.316Z,2.80
2018-09-28T02:29:29.290Z,10.20
2018-09-28T02:30:29.278Z,2.30
2018-09-28T02:31:29.289Z,3.00
2018-09-28T02:32:50.256Z,3.70
2018-09-28T02:33:50.273Z,3.00
2018-09-28T02:34:29.258Z,3.30
2018-09-28T02:35:29.245Z,3.80
2018-09-28T02:36:29.251Z,2.40
2018-09-28T02:37:50.249Z,2.50
2018-09-28T02:38:50.235Z,2.50
2018-09-28T02:39:29.250Z,3.70
2018-09-28T02:40:29.235Z,2.80
2018-09-28T02:41:29.243Z,3.00
2018-09-28T02:42:50.202Z,4.10
2018-09-28T02:43:50.219Z,4.20
2018-09-28T02:44:29.220Z,2.10
2018-09-28T02:45:29.210Z,2.60
2018-09-28T02:46:29.203Z,4.80
2018-09-28T02:47:50.205Z,4.90
2018-09-28T02:48:50.192Z,3.20
2018-09-28T02:49:29.175Z,2.70
2018-09-28T02:50:29.196Z,3.40
2018-09-28T02:51:29.139Z,3.50
2018-09-28T02:52:50.179Z,3.70
2018-09-28T02:53:50.181Z,4.40
2018-09-28T02:54:29.138Z,5.10
2018-09-28T02:55:29.162Z,3.90
2018-09-28T02:56:29.152Z,2.60
2018-09-28T02:57:50.100Z,2.90
2018-09-28T02:58:50.124Z,4.10
2018-09-28T02:59:29.134Z,3.60
2018-09-28T03:00:29.158Z,2.20
2018-09-28T03:01:29.106Z,5.60
2018-09-28T03:02:50.104Z,3.30
2018-09-28T03:03:50.126Z,3.50
2018-09-28T03:04:29.117Z,2.40
2018-09-28T03:05:29.119Z,2.60
2018-09-28T03:06:29.092Z,4.90
2018-09-28T03:07:50.112Z,3.00
2018-09-28T03:08:50.097Z,2.30
2018-09-28T03:09:29.092Z,3.00
2018-09-28T03:10:29.101Z,4.90
2018-09-28T03:11:29.084Z,2.10
2018-09-28T03:12:50.086Z,2.30
2018-09-28T03:13:50.072Z,3.20
2018-09-28T03:14:29.079Z,6.60
2018-09-28T03:15:29.069Z,3.00
2018-09-28T03:16:29.077Z,3.10
2018-09-28T03:17:50.035Z,3.90
2018-09-28T03:18:50.083Z,2.90
2018-09-28T03:19:29.002Z,4.10
2018-09-28T03:20:29.224Z,3.70
2018-09-28T03:21:29.023Z,7.00
2018-09-28T03:22:50.026Z,2.40
2018-09-28T03:23:50.027Z,3.10
2018-09-28T03:24:29.059Z,2.00
2018-09-28T03:25:29.006Z,3.70
2018-09-28T03:26:29.012Z,2.80
2018-09-28T03:27:49.994Z,2.90
2018-09-28T03:28:49.999Z,3.40
2018-09-28T03:29:28.984Z,4.00
2018-09-28T03:30:29.005Z,2.40
2018-09-28T03:31:28.974Z,3.20
2018-09-28T03:32:49.932Z,3.00
2018-09-28T03:33:49.941Z,5.30
2018-09-28T03:34:28.927Z,4.10
2018-09-28T03:35:28.958Z,2.50
2018-09-28T03:36:28.965Z,3.60
2018-09-28T03:37:49.948Z,3.30
2018-09-28T03:38:49.942Z,6.30
2018-09-28T03:39:28.909Z,4.70
2018-09-28T03:40:28.985Z,5.80
2018-09-28T03:41:28.926Z,2.50
2018-09-28T03:42:50.003Z,3.60
2018-09-28T03:43:49.904Z,2.20
2018-09-28T03:44:28.944Z,2.70
2018-09-28T03:45:28.909Z,3.40
2018-09-28T03:46:28.893Z,4.90
2018-09-28T03:47:49.887Z,4.40
2018-09-28T03:48:49.897Z,3.50
2018-09-28T03:49:28.893Z,9.10
2018-09-28T03:50:28.860Z,6.60
2018-09-28T03:51:29.666Z,3.00
2018-09-28T03:52:49.866Z,3.30
2018-09-28T03:53:49.890Z,4.30
2018-09-28T03:54:28.848Z,3.40
2018-09-28T03:55:28.851Z,4.00
2018-09-28T03:56:28.857Z,3.10
2018-09-28T03:57:49.851Z,5.10
2018-09-28T03:58:49.844Z,4.60
2018-09-28T03:59:28.838Z,3.40
2018-09-28T04:00:28.830Z,3.80
2018-09-28T04:01:28.833Z,3.30
2018-09-28T04:02:49.804Z,4.10
2018-09-28T04:03:49.813Z,5.70
2018-09-28T04:04:28.813Z,6.30
2018-09-28T04:05:28.753Z,3.30
2018-09-28T04:06:28.832Z,4.50
2018-09-28T04:07:49.784Z,4.50
2018-09-28T04:08:49.787Z,6.10
2018-09-28T04:09:28.787Z,6.10
2018-09-28T04:10:28.764Z,3.40
2018-09-28T04:11:28.777Z,2.60
2018-09-28T04:12:49.750Z,4.30
2018-09-28T04:13:49.755Z,4.60
2018-09-28T04:14:28.756Z,4.50
2018-09-28T04:15:28.741Z,3.60
2018-09-28T04:16:28.745Z,9.20
2018-09-28T04:17:49.743Z,2.70
2018-09-28T04:18:49.734Z,5.40
2018-09-28T04:19:28.723Z,3.90
2018-09-28T04:20:28.709Z,3.80
2018-09-28T04:21:28.701Z,3.90
2018-09-28T04:22:49.715Z,6.40
2018-09-28T04:23:49.695Z,4.60
2018-09-28T04:24:28.738Z,5.10
2018-09-28T04:25:28.643Z,5.90
2018-09-28T04:26:28.716Z,4.60
2018-09-28T04:27:49.675Z,5.10
2018-09-28T04:28:49.677Z,3.40
2018-09-28T04:29:28.650Z,3.60
2018-09-28T04:30:28.714Z,6.30
2018-09-28T04:31:28.649Z,6.10
2018-09-28T04:32:50.135Z,4.80
2018-09-28T04:33:49.647Z,4.00
2018-09-28T04:34:28.642Z,5.30
2018-09-28T04:35:28.640Z,5.10
2018-09-28T04:36:28.624Z,4.50
2018-09-28T04:37:49.624Z,4.70
2018-09-28T04:38:49.623Z,4.40
2018-09-28T04:39:28.616Z,5.20
2018-09-28T04:40:28.597Z,5.80
2018-09-28T04:41:28.596Z,3.20
2018-09-28T04:42:49.600Z,3.70
2018-09-28T04:43:49.589Z,3.60
2018-09-28T04:44:28.596Z,7.60
2018-09-28T04:45:28.612Z,2.90
2018-09-28T04:46:28.567Z,4.10
2018-09-28T04:47:49.598Z,3.30
2018-09-28T04:48:49.569Z,3.90
2018-09-28T04:49:28.562Z,5.70
2018-09-28T04:50:28.514Z,4.50
2018-09-28T04:51:28.537Z,4.80
2018-09-28T04:52:49.536Z,7.20
2018-09-28T04:53:49.540Z,7.70
2018-09-28T04:54:28.526Z,4.00
2018-09-28T04:55:28.528Z,6.80
2018-09-28T04:56:28.535Z,9.60
2018-09-28T04:57:49.524Z,6.80
2018-09-28T04:58:49.514Z,6.90
2018-09-28T04:59:28.493Z,6.50
2018-09-28T05:00:28.528Z,5.00
2018-09-28T05:01:28.465Z,4.80
2018-09-28T05:02:49.455Z,4.00
2018-09-28T05:03:50.414Z,3.60
2018-09-28T05:04:28.508Z,5.10
2018-09-28T05:05:28.462Z,8.50
2018-09-28T05:06:28.509Z,6.90
2018-09-28T05:07:49.463Z,7.00
2018-09-28T05:08:49.454Z,3.50
2018-09-28T05:09:28.449Z,7.40
2018-09-28T05:10:28.444Z,7.60
2018-09-28T05:11:28.421Z,8.00
2018-09-28T05:12:49.462Z,6.70
2018-09-28T05:13:49.427Z,14.40
2018-09-28T05:14:28.413Z,11.30
2018-09-28T05:15:28.407Z,5.80
2018-09-28T05:16:28.435Z,7.30
2018-09-28T05:17:49.390Z,10.50
2018-09-28T05:18:49.395Z,10.70
2018-09-28T05:19:28.400Z,4.60
2018-09-28T05:20:28.391Z,4.40
2018-09-28T05:21:28.344Z,7.20
2018-09-28T05:22:49.368Z,9.50
2018-09-28T05:23:50.154Z,5.80
2018-09-28T05:24:28.364Z,5.80
2018-09-28T05:25:28.370Z,11.20
2018-09-28T05:26:28.353Z,4.80
2018-09-28T05:27:49.348Z,5.90
2018-09-28T05:28:49.343Z,4.50
2018-09-28T05:29:28.344Z,5.70
2018-09-28T05:30:28.310Z,6.50
2018-09-28T05:31:28.435Z,5.00
2018-09-28T05:32:49.461Z,3.80
2018-09-28T05:33:49.348Z,4.70
2018-09-28T05:34:28.296Z,5.90
2018-09-28T05:35:28.297Z,6.00
2018-09-28T05:36:28.340Z,6.70
2018-09-28T05:37:49.288Z,6.10
2018-09-28T05:38:49.277Z,7.40
2018-09-28T05:39:28.307Z,7.30
2018-09-28T05:40:28.284Z,6.80
2018-09-28T05:41:28.264Z,5.90
2018-09-28T05:42:49.273Z,9.20
2018-09-28T05:43:49.318Z,7.10
2018-09-28T05:44:28.260Z,5.80
2018-09-28T05:45:28.246Z,6.70
2018-09-28T05:46:28.285Z,9.70
2018-09-28T05:47:49.214Z,9.50
2018-09-28T05:48:49.224Z,6.80
2018-09-28T05:49:28.213Z,7.30
2018-09-28T05:50:28.220Z,7.40
2018-09-28T05:51:28.208Z,6.00
2018-09-28T05:52:49.211Z,6.90
2018-09-28T05:53:49.168Z,5.50
2018-09-28T05:54:29.180Z,5.80
2018-09-28T05:55:28.192Z,7.40
2018-09-28T05:56:28.154Z,5.30
2018-09-28T05:57:49.191Z,5.50
2018-09-28T05:58:49.177Z,6.00
2018-09-28T05:59:28.159Z,7.60
2018-09-28T06:00:28.158Z,7.20
2018-09-28T06:01:28.143Z,7.80
2018-09-28T06:02:49.123Z,5.70
2018-09-28T06:03:49.115Z,9.20
2018-09-28T06:04:28.178Z,5.70
2018-09-28T06:05:28.167Z,7.00
2018-09-28T06:06:28.131Z,5.00
2018-09-28T06:07:49.142Z,9.20
2018-09-28T06:08:49.128Z,6.50
2018-09-28T06:09:28.111Z,8.50
2018-09-28T06:10:28.048Z,6.00
2018-09-28T06:11:28.095Z,9.70
2018-09-28T06:12:49.052Z,7.50
2018-09-28T06:13:49.090Z,7.60
2018-09-28T06:14:28.098Z,5.40
2018-09-28T06:15:28.090Z,7.90
2018-09-28T06:16:28.108Z,3.70
2018-09-28T06:17:49.071Z,7.30
2018-09-28T06:18:49.084Z,7.80
2018-09-28T06:19:28.058Z,12.50
2018-09-28T06:20:28.045Z,15.50
2018-09-28T06:21:28.054Z,11.10
2018-09-28T06:22:49.048Z,11.80
2018-09-28T06:23:49.019Z,17.60
2018-09-28T06:24:28.027Z,17.30
2018-09-28T06:25:28.982Z,9.30
2018-09-28T06:26:28.031Z,24.70
2018-09-28T06:27:49.001Z,18.30
2018-09-28T06:28:48.968Z,12.90
2018-09-28T06:29:28.001Z,50.50
2018-09-28T06:30:27.985Z,13.10
2018-09-28T06:31:27.990Z,14.50
2018-09-28T06:32:48.985Z,14.40
2018-09-28T06:33:49.009Z,8.90
2018-09-28T06:34:27.999Z,19.20
2018-09-28T06:35:27.969Z,8.70
2018-09-28T06:36:28.717Z,6.30
2018-09-28T06:37:49.004Z,15.30
2018-09-28T06:38:48.977Z,21.20
2018-09-28T06:39:27.938Z,11.70
2018-09-28T06:40:28.669Z,49.90
2018-09-28T06:41:27.930Z,9.90
2018-09-28T06:42:48.929Z,6.00
2018-09-28T06:43:48.909Z,6.50
2018-09-28T06:44:27.979Z,6.30
2018-09-28T06:45:27.896Z,7.70
2018-09-28T06:46:27.911Z,20.20
2018-09-28T06:47:48.940Z,8.70
2018-09-28T06:48:48.953Z,15.30
2018-09-28T06:49:27.886Z,7.40
2018-09-28T06:50:27.915Z,7.40
2018-09-28T06:51:27.938Z,8.70
2018-09-28T06:52:48.883Z,10.30
2018-09-28T06:53:48.930Z,16.20
2018-09-28T06:54:27.895Z,6.00
2018-09-28T06:55:27.943Z,12.50
2018-09-28T06:56:27.885Z,13.70
2018-09-28T06:57:48.847Z,43.50
2018-09-28T06:58:48.828Z,12.70
2018-09-28T06:59:27.877Z,64.20
2018-09-28T07:00:27.846Z,7.30
2018-09-28T07:01:27.838Z,12.60
2018-09-28T07:02:48.827Z,20.20
2018-09-28T07:03:48.848Z,12.00
2018-09-28T07:04:27.821Z,15.30
2018-09-28T07:05:27.805Z,14.30
2018-09-28T07:06:27.826Z,9.10
2018-09-28T07:07:48.773Z,11.10
2018-09-28T07:08:48.791Z,14.90
2018-09-28T07:09:27.811Z,12.60
2018-09-28T07:10:27.797Z,9.50
2018-09-28T07:11:27.799Z,14.30
2018-09-28T07:12:48.778Z,23.50
2018-09-28T07:13:48.773Z,12.20
2018-09-28T07:14:27.790Z,16.00
2018-09-28T07:15:27.760Z,11.30
2018-09-28T07:16:27.805Z,10.50
2018-09-28T07:17:48.769Z,10.90
2018-09-28T07:18:48.942Z,8.90
2018-09-28T07:19:27.718Z,13.50
2018-09-28T07:20:28.148Z,13.90
2018-09-28T07:21:28.365Z,11.20
2018-09-28T07:22:49.151Z,10.90
2018-09-28T07:23:49.362Z,10.10
2018-09-28T07:24:28.109Z,9.80
2018-09-28T07:25:28.191Z,12.60
2018-09-28T07:26:28.764Z,14.10
2018-09-28T07:27:49.238Z,11.50
2018-09-28T07:28:49.449Z,9.00
2018-09-28T07:29:27.735Z,11.70
2018-09-28T07:30:28.338Z,11.10
2018-09-28T07:31:28.959Z,8.00
2018-09-28T07:32:49.207Z,9.60
2018-09-28T07:33:48.794Z,10.90
2018-09-28T07:34:28.160Z,14.00
2018-09-28T07:35:28.944Z,16.50
2018-09-28T07:36:27.816Z,17.00
2018-09-28T07:37:48.652Z,14.80
2018-09-28T07:38:48.659Z,11.80
2018-09-28T07:39:27.659Z,13.10
2018-09-28T07:40:27.665Z,13.90
2018-09-28T07:41:27.636Z,15.10
2018-09-28T07:42:48.639Z,12.00
2018-09-28T07:43:48.644Z,8.70
2018-09-28T07:44:27.673Z,15.20
2018-09-28T07:45:27.631Z,11.80
2018-09-28T07:46:27.591Z,11.10
2018-09-28T07:47:48.643Z,17.30
2018-09-28T07:48:48.616Z,11.60
2018-09-28T07:49:27.622Z,13.60
2018-09-28T07:50:27.618Z,10.80
2018-09-28T07:51:27.611Z,24.20
2018-09-28T07:52:48.597Z,19.30
2018-09-28T07:53:48.577Z,16.10
2018-09-28T07:54:27.591Z,10.40
2018-09-28T07:55:27.588Z,11.10
2018-09-28T07:56:27.613Z,13.40
2018-09-28T07:57:48.585Z,9.00
2018-09-28T07:58:48.602Z,9.70
2018-09-28T07:59:27.838Z,10.60
2018-09-28T08:00:27.605Z,16.50
2018-09-28T08:01:27.912Z,15.90
2018-09-28T08:02:48.600Z,11.70
2018-09-28T08:03:48.634Z,8.80
2018-09-28T08:04:27.625Z,10.90
2018-09-28T08:05:27.531Z,9.60
2018-09-28T08:06:27.556Z,12.90
2018-09-28T08:07:48.898Z,12.00
2018-09-28T08:08:48.580Z,10.90
2018-09-28T08:09:27.576Z,12.70
2018-09-28T08:10:27.562Z,23.80
2018-09-28T08:11:27.503Z,28.60
2018-09-28T08:12:48.526Z,42.20
2018-09-28T08:13:50.128Z,14.40
2018-09-28T08:14:27.512Z,10.80
2018-09-28T08:15:27.534Z,14.10
2018-09-28T08:16:27.537Z,29.40
2018-09-28T08:17:48.559Z,62.80
2018-09-28T08:18:49.163Z,39.50
2018-09-28T08:19:28.153Z,20.80
2018-09-28T08:20:27.843Z,14.00
2018-09-28T08:21:27.485Z,9.90
2018-09-28T08:22:48.532Z,23.50
2018-09-28T08:23:48.515Z,14.80
2018-09-28T08:24:27.497Z,17.50
2018-09-28T08:25:27.502Z,14.00
2018-09-28T08:26:27.488Z,9.60
2018-09-28T08:27:48.481Z,19.00
2018-09-28T08:28:48.445Z,15.20
2018-09-28T08:29:27.467Z,10.80
2018-09-28T08:30:27.498Z,10.10
2018-09-28T08:31:27.455Z,14.10
2018-09-28T08:32:49.104Z,9.20
2018-09-28T08:33:48.437Z,13.40
2018-09-28T08:34:27.461Z,15.60
2018-09-28T08:35:27.460Z,15.90
2018-09-28T08:36:27.534Z,13.30
2018-09-28T08:37:48.469Z,14.40
2018-09-28T08:38:49.353Z,14.40
2018-09-28T08:39:27.444Z,13.50
2018-09-28T08:40:27.493Z,14.00
2018-09-28T08:41:27.440Z,15.20
2018-09-28T08:42:48.456Z,18.40
2018-09-28T08:43:48.452Z,14.90
2018-09-28T08:44:27.462Z,12.40
2018-09-28T08:45:27.410Z,10.50
2018-09-28T08:46:27.455Z,14.40
2018-09-28T08:47:48.450Z,17.90
2018-09-28T08:48:48.416Z,20.90
2018-09-28T08:49:27.468Z,14.10
2018-09-28T08:50:27.454Z,13.70
2018-09-28T08:51:27.418Z,16.80
2018-09-28T08:52:48.474Z,10.40
2018-09-28T08:53:48.423Z,23.90
2018-09-28T08:54:27.456Z,34.60
2018-09-28T08:55:27.408Z,21.10
2018-09-28T08:56:27.426Z,18.40
2018-09-28T08:57:48.426Z,14.20
2018-09-28T08:58:48.433Z,19.70
2018-09-28T08:59:27.413Z,12.50
2018-09-28T09:00:27.453Z,15.00
2018-09-28T09:01:27.398Z,12.30
2018-09-28T09:02:48.408Z,12.20
2018-09-28T09:03:48.399Z,17.90
2018-09-28T09:04:27.441Z,17.20
2018-09-28T09:05:28.078Z,14.30
2018-09-28T09:06:27.472Z,13.10
2018-09-28T09:07:48.367Z,13.00
2018-09-28T09:08:48.478Z,13.70
2018-09-28T09:09:27.387Z,16.00
2018-09-28T09:10:29.459Z,15.50
2018-09-28T09:11:27.380Z,18.80
2018-09-28T09:12:48.334Z,16.20
2018-09-28T09:13:48.381Z,17.20
2018-09-28T09:14:27.416Z,27.00
2018-09-28T09:15:27.386Z,20.20
2018-09-28T09:16:27.495Z,20.80
2018-09-28T09:17:48.428Z,17.60
2018-09-28T09:18:48.366Z,21.00
2018-09-28T09:19:27.328Z,17.70
2018-09-28T09:20:27.358Z,20.30
2018-09-28T09:21:27.360Z,18.20
2018-09-28T09:22:48.378Z,20.40
2018-09-28T09:23:48.404Z,16.30
2018-09-28T09:24:27.369Z,20.60
2018-09-28T09:25:27.372Z,17.10
2018-09-28T09:26:27.374Z,14.40
2018-09-28T09:27:48.384Z,17.10
2018-09-28T09:28:48.324Z,17.60
2018-09-28T09:29:28.052Z,14.80
2018-09-28T09:30:27.378Z,31.80
2018-09-28T09:31:27.355Z,23.60
2018-09-28T09:32:48.332Z,22.00
2018-09-28T09:33:48.574Z,18.90
2018-09-28T09:34:27.331Z,18.60
2018-09-28T09:35:27.322Z,18.40
2018-09-28T09:36:27.443Z,16.20
2018-09-28T09:37:48.337Z,17.40
2018-09-28T09:38:48.326Z,17.70
2018-09-28T09:39:29.127Z,19.70
2018-09-28T09:40:27.333Z,15.70
2018-09-28T09:41:27.357Z,19.30
2018-09-28T09:42:48.325Z,20.70
2018-09-28T09:43:48.325Z,35.80
2018-09-28T09:44:27.334Z,18.30
2018-09-28T09:45:27.309Z,23.80
2018-09-28T09:46:27.374Z,24.50
2018-09-28T09:47:48.384Z,27.90
2018-09-28T09:48:48.317Z,21.80
2018-09-28T09:49:27.319Z,22.20
2018-09-28T09:50:27.352Z,24.50
2018-09-28T09:51:27.321Z,21.60
2018-09-28T09:52:48.310Z,25.80
2018-09-28T09:53:48.306Z,20.50
2018-09-28T09:54:27.310Z,27.70
2018-09-28T09:55:27.303Z,25.50
2018-09-28T09:56:27.326Z,29.00
2018-09-28T09:57:48.343Z,25.10
2018-09-28T09:58:48.287Z,21.80
2018-09-28T09:59:27.258Z,30.80
2018-09-28T10:00:28.268Z,32.50
2018-09-28T10:01:27.280Z,28.40
2018-09-28T10:02:48.298Z,27.80
2018-09-28T10:03:48.290Z,29.50
2018-09-28T10:04:27.309Z,36.30
2018-09-28T10:05:27.255Z,34.50
2018-09-28T10:06:27.324Z,30.50
2018-09-28T10:07:48.265Z,36.10
2018-09-28T10:08:48.468Z,34.70
2018-09-28T10:09:27.262Z,41.30
2018-09-28T10:10:27.315Z,34.60
2018-09-28T10:11:27.296Z,37.30
2018-09-28T10:12:48.305Z,37.80
2018-09-28T10:13:48.265Z,37.90
2018-09-28T10:14:27.543Z,42.80
2018-09-28T10:15:27.240Z,36.70
2018-09-28T10:16:27.271Z,38.70
2018-09-28T10:17:48.245Z,42.60
2018-09-28T10:18:48.244Z,43.10
2018-09-28T10:19:27.277Z,48.00
2018-09-28T10:20:27.236Z,50.70
2018-09-28T10:21:27.280Z,50.20
2018-09-28T10:22:48.846Z,43.70
2018-09-28T10:23:48.346Z,45.40
2018-09-28T10:24:27.213Z,43.40
2018-09-28T10:25:27.253Z,41.90
2018-09-28T10:26:27.262Z,40.60
2018-09-28T10:27:48.259Z,45.90
2018-09-28T10:28:48.229Z,43.90
2018-09-28T10:29:27.203Z,44.90
2018-09-28T10:30:27.847Z,44.40
2018-09-28T10:31:27.178Z,52.30
2018-09-28T10:32:48.721Z,42.70
2018-09-28T10:33:48.224Z,46.80
2018-09-28T10:34:27.221Z,43.70
2018-09-28T10:35:27.221Z,46.60
2018-09-28T10:36:27.314Z,38.60
2018-09-28T10:37:48.246Z,43.60
2018-09-28T10:38:48.192Z,49.60
2018-09-28T10:39:27.264Z,50.30
2018-09-28T10:40:27.384Z,42.10
2018-09-28T10:41:27.187Z,41.90
2018-09-28T10:42:48.177Z,42.60
2018-09-28T10:43:48.684Z,40.80
2018-09-28T10:44:27.485Z,38.00
2018-09-28T10:45:27.249Z,41.40
2018-09-28T10:46:29.481Z,38.30
2018-09-28T10:47:48.171Z,39.60
2018-09-28T10:48:48.204Z,43.00
2018-09-28T10:49:27.145Z,38.90
2018-09-28T10:50:27.228Z,43.00
2018-09-28T10:51:27.280Z,43.40
2018-09-28T10:52:48.229Z,42.70
2018-09-28T10:53:48.154Z,43.20
2018-09-28T10:54:27.144Z,38.50
2018-09-28T10:55:28.381Z,46.00
2018-09-28T10:56:27.176Z,43.00
2018-09-28T10:57:48.136Z,44.70
2018-09-28T10:58:48.161Z,47.60
2018-09-28T10:59:27.250Z,37.60
2018-09-28T11:00:27.166Z,43.30
2018-09-28T11:01:27.443Z,43.10
2018-09-28T11:02:48.107Z,38.80
2018-09-28T11:03:48.201Z,36.00
2018-09-28T11:04:27.131Z,41.50
2018-09-28T11:05:27.115Z,34.50
2018-09-28T11:06:27.094Z,36.50
2018-09-28T11:07:48.167Z,26.70
2018-09-28T11:08:48.149Z,24.00
2018-09-28T11:09:27.254Z,25.30
2018-09-28T11:10:27.154Z,29.00
2018-09-28T11:11:27.076Z,25.00
2018-09-28T11:12:49.085Z,28.50
2018-09-28T11:13:48.092Z,22.80
2018-09-28T11:14:27.650Z,24.80
2018-09-28T11:15:27.112Z,29.80
2018-09-28T11:16:27.104Z,23.10
2018-09-28T11:17:48.049Z,24.10
2018-09-28T11:18:48.133Z,26.70
2018-09-28T11:19:27.098Z,25.40
2018-09-28T11:20:27.069Z,19.90
2018-09-28T11:21:27.155Z,20.50
2018-09-28T11:22:48.071Z,19.40
2018-09-28T11:23:48.061Z,23.20
2018-09-28T11:24:29.062Z,20.10
2018-09-28T11:25:27.050Z,20.20
2018-09-28T11:26:27.032Z,21.40
2018-09-28T11:27:48.090Z,28.30
2018-09-28T11:28:48.008Z,26.20
2018-09-28T11:29:27.059Z,21.20
2018-09-28T11:30:27.043Z,29.10
2018-09-28T11:31:29.852Z,27.40
2018-09-28T11:32:48.045Z,25.00
2018-09-28T11:33:48.763Z,23.70
2018-09-28T11:34:27.050Z,20.30
2018-09-28T11:35:27.036Z,20.70
2018-09-28T11:36:27.023Z,18.70
2018-09-28T11:37:48.141Z,22.70
2018-09-28T11:38:48.026Z,24.10
2018-09-28T11:39:27.097Z,21.80
2018-09-28T11:40:27.044Z,19.80
2018-09-28T11:41:27.016Z,22.00
2018-09-28T11:42:48.018Z,20.20
2018-09-28T11:43:48.016Z,20.90
2018-09-28T11:44:27.026Z,18.80
2018-09-28T11:45:27.143Z,17.50
2018-09-28T11:46:27.024Z,20.40
2018-09-28T11:47:48.009Z,23.20
2018-09-28T11:48:48.038Z,19.20
2018-09-28T11:49:27.025Z,25.40
2018-09-28T11:50:28.830Z,18.80
2018-09-28T11:51:27.088Z,20.40
2018-09-28T11:52:47.981Z,17.80
2018-09-28T11:53:48.009Z,17.40
2018-09-28T11:54:26.985Z,15.80
2018-09-28T11:55:28.405Z,18.10
2018-09-28T11:56:27.014Z,19.00
2018-09-28T11:57:50.012Z,17.00
2018-09-28T11:58:48.095Z,80.60
2018-09-28T11:59:26.991Z,20.90
2018-09-28T12:00:26.979Z,20.30
2018-09-28T12:01:27.034Z,20.90
2018-09-28T12:02:48.148Z,17.50
2018-09-28T12:03:48.070Z,18.50
2018-09-28T12:04:26.988Z,17.40
2018-09-28T12:05:26.967Z,24.20
2018-09-28T12:06:27.053Z,26.70
2018-09-28T12:07:48.121Z,19.70
2018-09-28T12:08:47.994Z,19.10
2018-09-28T12:09:27.059Z,17.40
2018-09-28T12:10:26.934Z,19.10
2018-09-28T12:11:26.910Z,14.10
2018-09-28T12:12:48.001Z,14.70
2018-09-28T12:13:49.062Z,15.10
2018-09-28T12:14:26.964Z,15.10
2018-09-28T12:15:26.961Z,15.90
2018-09-28T12:16:26.998Z,19.10
2018-09-28T12:17:47.936Z,16.60
2018-09-28T12:18:48.006Z,18.60
2018-09-28T12:19:26.912Z,15.90
2018-09-28T12:20:26.913Z,17.90
2018-09-28T12:21:27.004Z,15.00
2018-09-28T12:22:47.952Z,15.60
2018-09-28T12:23:48.020Z,17.40
2018-09-28T12:24:27.043Z,17.50
2018-09-28T12:25:26.934Z,16.50
2018-09-28T12:26:26.932Z,13.10
2018-09-28T12:27:48.006Z,14.40
2018-09-28T12:28:48.050Z,13.10
2018-09-28T12:29:27.587Z,13.00
2018-09-28T12:30:27.016Z,16.60
2018-09-28T12:31:26.983Z,14.00
2018-09-28T12:32:47.971Z,41.50
2018-09-28T12:33:47.987Z,21.50
2018-09-28T12:34:27.047Z,13.50
2018-09-28T12:35:27.337Z,17.50
2018-09-28T12:36:26.992Z,20.30
2018-09-28T12:37:47.951Z,23.50
2018-09-28T12:38:47.940Z,19.90
2018-09-28T12:39:27.027Z,19.00
2018-09-28T12:40:26.927Z,21.30
2018-09-28T12:41:26.917Z,17.60
2018-09-28T12:42:48.031Z,16.20
2018-09-28T12:43:47.949Z,16.00
2018-09-28T12:44:26.948Z,19.30
2018-09-28T12:45:27.061Z,17.70
2018-09-28T12:46:27.539Z,14.30
2018-09-28T12:47:47.950Z,15.60
2018-09-28T12:48:48.655Z,18.80
2018-09-28T12:49:26.910Z,16.00
2018-09-28T12:50:27.024Z,19.20
2018-09-28T12:51:26.905Z,17.10
2018-09-28T12:52:47.888Z,18.10
2018-09-28T12:53:47.967Z,14.70
2018-09-28T12:54:27.045Z,16.30
2018-09-28T12:55:28.258Z,56.10
2018-09-28T12:56:26.981Z,15.80
2018-09-28T12:57:47.952Z,41.70
2018-09-28T12:58:47.900Z,17.90
2018-09-28T12:59:26.937Z,18.70
2018-09-28T13:00:26.980Z,23.30
2018-09-28T13:01:26.932Z,18.00
2018-09-28T13:02:47.966Z,16.70
2018-09-28T13:03:47.879Z,18.80
2018-09-28T13:04:27.142Z,20.30
2018-09-28T13:05:26.912Z,21.10